Time;durP1;ratioP1;P1;durP2;ratioP2;P2;SDS_P1;SDS_P2;PMS_P1;PMS_P2;Temp;Humidity;BMP_temperature;BMP_pressure;BME280_temperature;BME280_humidity;BME280_pressure;Samples;Min_cycle;Max_cycle;Signal;HPM_P1;HPM_P2
2022/11/07 00:01:10;;;;;;;49.85;27.88;;;358.60;2329.60;;;;;;5074472;28;20048;-79
2022/11/07 00:03:36;;;;;;;54.92;29.30;;;358.60;2329.60;;;;;;5074610;28;20028;-79
2022/11/07 00:06:02;;;;;;;51.70;28.63;;;358.60;2329.60;;;;;;5070521;28;20024;-79
2022/11/07 00:08:30;;;;;;;58.17;29.77;;;358.60;2329.60;;;;;;5083660;28;20442;-79
2022/11/07 00:11:05;;;;;;;59.47;28.13;;;358.50;2329.60;;;;;;5074284;28;20028;-79
2022/11/07 00:13:32;;;;;;;57.83;30.20;;;358.50;2329.60;;;;;;5073414;28;20040;-79
2022/11/07 00:16:02;;;;;;;57.38;30.05;;;358.50;2329.60;;;;;;5074158;28;20374;-79
2022/11/07 00:18:29;;;;;;;55.03;28.30;;;358.50;2329.60;;;;;;5064999;28;20127;-79
2022/11/07 00:20:54;;;;;;;51.15;27.75;;;358.50;2329.60;;;;;;5064516;28;20119;-79
2022/11/07 00:23:20;;;;;;;48.50;26.75;;;358.50;2329.60;;;;;;5088600;28;20119;-79
2022/11/07 00:25:46;;;;;;;55.75;29.00;;;358.60;2329.60;;;;;;5070617;28;20039;-78
2022/11/07 00:28:11;;;;;;;56.05;29.38;;;358.50;2329.60;;;;;;5087299;28;20389;-79
2022/11/07 00:30:37;;;;;;;51.35;27.63;;;358.50;2329.60;;;;;;5073989;28;20033;-78
2022/11/07 00:33:03;;;;;;;54.88;28.77;;;358.50;2329.60;;;;;;5092263;28;20033;-78
2022/11/07 00:35:29;;;;;;;56.78;28.70;;;358.50;2329.60;;;;;;5074289;28;20017;-78
2022/11/07 00:37:55;;;;;;;60.50;29.13;;;358.50;2329.60;;;;;;5074009;28;20077;-79
2022/11/07 00:40:21;;;;;;;58.83;28.52;;;358.50;2329.60;;;;;;5092083;28;20023;-79
2022/11/07 00:42:47;;;;;;;54.45;27.48;;;358.50;2329.60;;;;;;5066474;28;20024;-78
2022/11/07 00:45:12;;;;;;;62.33;30.23;;;358.50;2329.60;;;;;;5073155;28;20478;-78
2022/11/07 00:47:39;;;;;;;59.78;29.02;;;358.50;2329.60;;;;;;5070892;28;20470;-79
2022/11/07 00:50:06;;;;;;;56.65;27.10;;;358.60;2329.60;;;;;;5070027;28;20035;-79
2022/11/07 00:52:32;;;;;;;54.80;28.13;;;358.50;2329.60;;;;;;5073411;28;20020;-79
2022/11/07 00:54:58;;;;;;;55.20;29.45;;;358.50;2329.60;;;;;;5090691;28;20391;-78
2022/11/07 00:57:23;;;;;;;57.33;27.60;;;358.50;2329.60;;;;;;5074304;28;20039;-79
2022/11/07 00:59:49;;;;;;;55.13;27.80;;;358.50;2329.60;;;;;;5073923;28;20474;-78
2022/11/07 01:02:15;;;;;;;60.70;27.35;;;358.50;2329.60;;;;;;5074009;28;20031;-79
2022/11/07 01:07:24;;;;;;;62.70;28.17;;;358.50;2329.60;;;;;;5087418;28;20497;-79
2022/11/07 01:09:50;;;;;;;66.15;26.50;;;358.40;2329.60;;;;;;5068481;28;20025;-79
2022/11/07 01:12:16;;;;;;;61.45;26.50;;;358.40;2329.60;;;;;;5070385;28;20036;-79
2022/11/07 01:14:41;;;;;;;58.75;28.00;;;358.40;2329.60;;;;;;5073367;28;20055;-78
2022/11/07 01:17:07;;;;;;;62.30;25.67;;;333.70;2329.60;;;;;;5090824;28;20616;-79
2022/11/07 01:19:33;;;;;;;55.47;25.88;;;333.70;2329.60;;;;;;5056325;28;20467;-80
2022/11/07 01:21:59;;;;;;;64.53;27.88;;;333.70;2329.60;;;;;;5064472;28;20035;-79
2022/11/07 01:24:24;;;;;;;59.78;26.05;;;333.70;2329.60;;;;;;5068877;28;20037;-79
2022/11/07 01:26:50;;;;;;;74.38;26.17;;;333.70;2329.60;;;;;;5072453;28;20036;-79
2022/11/07 01:29:17;;;;;;;57.50;25.13;;;333.70;2329.60;;;;;;5073074;28;20028;-79
2022/11/07 01:31:43;;;;;;;64.88;24.73;;;333.60;2329.60;;;;;;5091207;28;20024;-78
2022/11/07 01:34:08;;;;;;;65.03;26.25;;;333.60;2329.60;;;;;;5072563;28;20076;-78
2022/11/07 01:36:34;;;;;;;67.65;25.23;;;333.60;2329.60;;;;;;5072614;28;20143;-78
2022/11/07 01:39:00;;;;;;;63.67;25.95;;;333.70;2329.60;;;;;;5072685;28;20458;-78
2022/11/07 01:41:29;;;;;;;59.78;24.75;;;333.60;2329.60;;;;;;5073051;28;20035;-78
2022/11/07 01:43:59;;;;;;;62.22;25.67;;;333.60;2329.60;;;;;;5072941;28;20044;-78
2022/11/07 01:46:29;;;;;;;69.57;28.40;;;333.60;2124.80;;;;;;5064002;28;20020;-78
2022/11/07 01:49:20;;;;;;;60.78;25.35;;;333.60;2329.60;;;;;;5076780;28;20058;-79
2022/11/07 01:51:55;;;;;;;65.97;26.45;;;333.60;1996.80;;;;;;5007765;28;20033;-79
2022/11/07 01:54:26;;;;;;;76.00;27.55;;;333.60;2329.60;;;;;;5018455;28;20045;-78
2022/11/07 01:56:54;;;;;;;81.88;28.27;;;333.60;2329.60;;;;;;5015818;28;20045;-78
2022/11/07 01:59:24;;;;;;;90.60;30.90;;;333.60;2329.60;;;;;;5025255;28;20511;-79
2022/11/07 02:01:49;;;;;;;78.80;28.13;;;333.50;2329.60;;;;;;5026493;28;20033;-78
2022/11/07 02:04:18;;;;;;;84.25;30.30;;;333.60;2329.60;;;;;;5031348;28;20029;-79
2022/11/07 02:06:51;;;;;;;81.78;30.25;;;333.50;2329.60;;;;;;5015416;28;20033;-79
2022/11/07 02:09:16;;;;;;;94.50;32.78;;;333.60;2329.60;;;;;;5032003;28;20048;-78
2022/11/07 02:11:42;;;;;;;90.15;30.02;;;333.50;2329.60;;;;;;5031725;28;20026;-78
2022/11/07 02:14:16;;;;;;;83.10;30.17;;;333.50;2329.60;;;;;;5023892;28;20462;-80
2022/11/07 02:16:43;;;;;;;88.03;31.38;;;333.60;2329.60;;;;;;5014013;28;20121;-78
2022/11/07 02:19:21;;;;;;;96.68;30.90;;;333.60;2329.60;;;;;;5015326;28;20025;-79
2022/11/07 02:22:25;;;;;;;97.55;33.83;;;333.70;2329.60;;;;;;5031283;28;20049;-79
2022/11/07 02:24:55;;;;;;;106.82;32.80;;;333.70;2329.60;;;;;;4964859;28;20034;-78
2022/11/07 02:27:23;;;;;;;88.10;33.85;;;333.70;2329.60;;;;;;4961623;28;20035;-78
2022/11/07 02:29:54;;;;;;;98.55;31.75;;;333.70;2329.60;;;;;;4994752;28;20139;-79
2022/11/07 02:32:20;;;;;;;88.47;33.20;;;333.70;2329.60;;;;;;5019221;28;20057;-79
2022/11/07 02:34:54;;;;;;;112.10;34.70;;;333.70;2329.60;;;;;;5020000;28;20538;-79
2022/11/07 02:37:25;;;;;;;89.57;33.80;;;333.70;2201.60;;;;;;5018056;28;20089;-79
2022/11/07 02:39:51;;;;;;;103.53;34.58;;;333.70;2329.60;;;;;;5022827;28;20026;-79
2022/11/07 02:42:17;;;;;;;102.93;34.80;;;333.70;2329.60;;;;;;5010970;28;20112;-78
2022/11/07 02:44:43;;;;;;;93.40;36.10;;;333.70;2329.60;;;;;;5019422;28;20116;-79
2022/11/07 02:47:09;;;;;;;117.70;35.72;;;333.70;2329.60;;;;;;5025555;28;20031;-79
2022/11/07 02:49:35;;;;;;;108.97;36.55;;;333.70;2329.60;;;;;;5007681;28;20388;-79
2022/11/07 02:52:00;;;;;;;90.03;34.42;;;333.70;2329.60;;;;;;5006918;28;20078;-79
2022/11/07 02:54:26;;;;;;;103.18;36.45;;;333.70;2329.60;;;;;;4997962;28;20040;-78
2022/11/07 02:56:52;;;;;;;147.85;38.67;;;333.70;2329.60;;;;;;5000835;28;20084;-79
2022/11/07 02:59:17;;;;;;;152.68;40.45;;;333.70;2329.60;;;;;;5008238;28;20030;-80
2022/11/07 03:01:43;;;;;;;107.05;34.05;;;333.70;2329.60;;;;;;5032627;28;20119;-78
2022/11/07 03:04:09;;;;;;;117.22;36.08;;;333.70;2329.60;;;;;;5069539;28;20021;-78
2022/11/07 03:06:34;;;;;;;116.80;36.33;;;333.70;2329.60;;;;;;5074402;28;20017;-78
2022/11/07 03:09:00;;;;;;;112.85;37.35;;;333.70;2329.60;;;;;;5074476;28;20398;-78
2022/11/07 03:11:26;;;;;;;141.02;42.08;;;333.70;2329.60;;;;;;5074958;28;20035;-79
2022/11/07 03:13:53;;;;;;;176.95;43.17;;;333.70;2329.60;;;;;;5092657;28;20091;-79
2022/11/07 03:16:19;;;;;;;130.45;38.67;;;333.70;2329.60;;;;;;5092753;28;20036;-79
2022/11/07 03:18:45;;;;;;;129.27;38.60;;;333.70;2329.60;;;;;;5074637;28;20089;-78
2022/11/07 03:21:11;;;;;;;149.13;40.75;;;333.70;2329.60;;;;;;5074807;28;20107;-79
2022/11/07 03:23:37;;;;;;;117.55;37.50;;;333.70;2329.60;;;;;;5092821;28;20482;-80
2022/11/07 03:26:04;;;;;;;157.38;40.28;;;333.70;2329.60;;;;;;5093402;28;20024;-79
2022/11/07 03:28:30;;;;;;;163.25;40.90;;;333.70;2329.60;;;;;;5071954;28;20020;-79
2022/11/07 03:31:00;;;;;;;192.13;42.55;;;333.70;2329.60;;;;;;5092419;28;20024;-79
2022/11/07 03:33:30;;;;;;;205.90;43.38;;;333.60;2329.60;;;;;;5074848;28;20025;-79
2022/11/07 03:35:56;;;;;;;144.40;40.47;;;333.60;2329.60;;;;;;5073912;28;20090;-79
2022/11/07 03:38:22;;;;;;;126.90;39.83;;;333.60;2329.60;;;;;;5092377;28;20034;-78
2022/11/07 03:40:48;;;;;;;130.50;39.35;;;333.60;2329.60;;;;;;5074040;28;20457;-78
2022/11/07 03:43:14;;;;;;;115.05;37.95;;;333.70;2329.60;;;;;;5074225;28;20016;-79
2022/11/07 03:45:40;;;;;;;122.72;39.95;;;333.70;2329.60;;;;;;5092545;28;20507;-79
2022/11/07 03:48:05;;;;;;;122.95;36.75;;;333.70;2329.60;;;;;;5073660;28;20456;-78
2022/11/07 03:50:31;;;;;;;148.50;40.45;;;333.70;2329.60;;;;;;5074491;28;20035;-79
2022/11/07 03:52:57;;;;;;;145.90;41.42;;;333.70;2329.60;;;;;;5092094;28;20028;-79
2022/11/07 03:55:22;;;;;;;124.82;40.40;;;333.70;2329.60;;;;;;5074294;28;20503;-78
2022/11/07 03:57:48;;;;;;;158.68;40.05;;;333.70;2329.60;;;;;;5074240;28;20040;-79
2022/11/07 04:00:15;;;;;;;173.10;41.42;;;333.70;2329.60;;;;;;5074112;28;20031;-79
2022/11/07 04:02:41;;;;;;;142.60;43.03;;;333.70;2329.60;;;;;;5073997;28;20023;-78
2022/11/07 04:05:08;;;;;;;93.03;36.95;;;333.70;2329.60;;;;;;5073884;28;20051;-78
2022/11/07 04:07:34;;;;;;;125.85;39.75;;;333.70;2329.60;;;;;;5068231;28;20126;-78
2022/11/07 04:10:00;;;;;;;157.30;40.80;;;333.70;2329.60;;;;;;5073440;28;20070;-79
2022/11/07 04:17:55;;;;;;;155.70;39.00;;;333.70;2329.60;;;;;;5088915;28;20066;-79
2022/11/07 04:20:20;;;;;;;191.88;42.45;;;333.70;2329.60;;;;;;5091962;28;20044;-78
2022/11/07 04:22:46;;;;;;;172.93;41.40;;;333.70;2329.60;;;;;;5070205;28;20035;-79
2022/11/07 04:25:12;;;;;;;168.57;38.35;;;333.60;2329.60;;;;;;5085299;28;20012;-78
2022/11/07 04:27:45;;;;;;;180.93;41.88;;;333.60;2329.60;;;;;;5073886;28;20020;-79
2022/11/07 04:30:27;;;;;;;155.80;41.38;;;333.50;2329.60;;;;;;5091947;28;20103;-78
2022/11/07 04:32:59;;;;;;;172.48;40.30;;;333.50;2329.60;;;;;;5073708;28;20030;-78
2022/11/07 04:35:30;;;;;;;153.48;39.05;;;333.50;2329.60;;;;;;5073535;28;20016;-78
2022/11/07 04:37:57;;;;;;;167.85;41.45;;;333.50;2329.60;;;;;;5087988;28;20112;-78
2022/11/07 04:40:23;;;;;;;111.57;37.88;;;333.50;2329.60;;;;;;5091118;28;20008;-78
2022/11/07 04:42:49;;;;;;;103.50;35.17;;;333.50;2329.60;;;;;;5088919;28;20043;-78
2022/11/07 04:45:16;;;;;;;132.30;40.42;;;333.60;2329.60;;;;;;5073360;28;20016;-78
2022/11/07 04:47:42;;;;;;;110.50;35.67;;;333.60;2329.60;;;;;;5088143;28;20028;-78
2022/11/07 04:50:10;;;;;;;86.63;33.33;;;333.70;2329.60;;;;;;5073622;28;20027;-79
2022/11/07 04:52:37;;;;;;;98.78;33.88;;;333.70;2329.60;;;;;;5073429;28;20028;-78
2022/11/07 04:55:03;;;;;;;89.75;32.28;;;333.70;2329.60;;;;;;5091268;28;20069;-77
2022/11/07 04:57:29;;;;;;;88.65;33.05;;;333.60;2329.60;;;;;;5073508;28;20024;-79
2022/11/07 04:59:55;;;;;;;82.00;33.92;;;333.60;2329.60;;;;;;5073694;28;20942;-79
2022/11/07 05:02:24;;;;;;;102.90;34.85;;;333.70;2329.60;;;;;;5073306;28;20059;-78
2022/11/07 05:04:51;;;;;;;83.75;34.53;;;333.60;1996.80;;;;;;5073412;28;20034;-78
2022/11/07 05:07:18;;;;;;;84.82;33.63;;;333.60;2329.60;;;;;;5070592;28;20046;-78
2022/11/07 05:09:43;;;;;;;98.30;34.08;;;333.60;2329.60;;;;;;5072950;28;20020;-78
2022/11/07 05:12:09;;;;;;;85.07;33.67;;;333.60;2329.60;;;;;;5073243;28;20043;-78
2022/11/07 05:14:35;;;;;;;82.90;31.85;;;333.70;2329.60;;;;;;5091277;28;20028;-78
2022/11/07 05:17:02;;;;;;;90.57;33.47;;;333.70;2201.60;;;;;;5073253;28;20086;-78
2022/11/07 05:19:28;;;;;;;86.45;31.60;;;333.60;2304.00;;;;;;5073076;28;20047;-79
2022/11/07 05:24:38;;;;;;;82.70;33.72;;;333.60;2329.60;;;;;;5094997;28;20062;-78
2022/11/07 05:27:05;;;;;;;86.82;33.88;;;333.60;2329.60;;;;;;5095188;28;20426;-78
2022/11/07 05:29:31;;;;;;;87.85;32.97;;;333.60;2329.60;;;;;;5077273;28;20606;-78
2022/11/07 05:31:56;;;;;;;80.53;33.38;;;333.60;2329.60;;;;;;5094883;28;20028;-79
2022/11/07 05:34:22;;;;;;;100.43;35.80;;;333.60;2329.60;;;;;;5076921;28;20759;-79
2022/11/07 05:36:48;;;;;;;79.72;29.55;;;333.60;2329.60;;;;;;5075947;28;20081;-79
2022/11/07 05:39:14;;;;;;;75.53;30.95;;;333.60;2329.60;;;;;;5076719;28;20024;-78
2022/11/07 05:41:40;;;;;;;75.80;30.70;;;333.60;2329.60;;;;;;5076461;28;20058;-78
2022/11/07 05:44:05;;;;;;;85.07;31.23;;;333.70;2329.60;;;;;;5076556;28;20024;-78
2022/11/07 05:46:31;;;;;;;69.22;28.52;;;333.70;2278.40;;;;;;5076650;28;20028;-78
2022/11/07 05:48:57;;;;;;;72.97;28.42;;;333.70;2329.60;;;;;;5076823;28;20354;-78
2022/11/07 05:51:22;;;;;;;82.97;31.17;;;333.70;2329.60;;;;;;5075752;28;20115;-78
2022/11/07 05:53:48;;;;;;;75.63;30.27;;;333.70;2329.60;;;;;;5094288;28;20485;-79
2022/11/07 05:56:14;;;;;;;72.72;30.73;;;333.70;2329.60;;;;;;5094815;28;20020;-78
2022/11/07 05:58:39;;;;;;;83.15;30.75;;;333.70;2329.60;;;;;;5075833;28;20550;-79
2022/11/07 06:01:05;;;;;;;88.53;34.30;;;333.70;2329.60;;;;;;5076471;28;20027;-78
2022/11/07 06:03:32;;;;;;;83.63;32.60;;;333.70;2329.60;;;;;;5076421;28;20059;-79
2022/11/07 06:05:58;;;;;;;79.43;32.33;;;333.70;2329.60;;;;;;5076398;28;20035;-79
2022/11/07 06:08:23;;;;;;;80.65;30.98;;;358.40;2329.60;;;;;;5076056;28;20020;-78
2022/11/07 06:10:49;;;;;;;79.07;32.35;;;358.40;2329.60;;;;;;5075983;28;20031;-78
2022/11/07 06:13:15;;;;;;;74.15;31.13;;;333.70;2329.60;;;;;;5075068;28;20397;-78
2022/11/07 06:15:42;;;;;;;76.95;35.28;;;358.40;2329.60;;;;;;5075786;28;20050;-77
2022/11/07 06:18:16;;;;;;;91.93;39.58;;;358.40;2329.60;;;;;;5094173;28;20500;-78
2022/11/07 06:20:42;;;;;;;78.43;34.75;;;358.50;2329.60;;;;;;5075311;28;20035;-77
2022/11/07 06:23:09;;;;;;;78.85;31.48;;;358.40;2329.60;;;;;;5076048;28;20020;-77
2022/11/07 06:25:35;;;;;;;73.10;29.55;;;358.40;2329.60;;;;;;5093672;28;20035;-77
2022/11/07 06:28:06;;;;;;;65.18;31.40;;;358.40;2329.60;;;;;;5075342;28;20526;-77
2022/11/07 06:30:33;;;;;;;71.28;30.90;;;358.40;2329.60;;;;;;5093896;28;20020;-74
2022/11/07 06:33:01;;;;;;;67.80;28.58;;;358.40;2329.60;;;;;;5093142;28;20043;-77
2022/11/07 06:35:31;;;;;;;63.50;29.15;;;358.40;2329.60;;;;;;5091191;28;20470;-76
2022/11/07 06:38:01;;;;;;;64.00;28.63;;;358.40;2329.60;;;;;;5093918;28;20036;-78
2022/11/07 06:40:27;;;;;;;68.35;30.08;;;358.40;2329.60;;;;;;5075942;28;20020;-77
2022/11/07 06:42:52;;;;;;;80.53;32.42;;;358.40;2329.60;;;;;;5080961;28;20097;-76
2022/11/07 06:45:18;;;;;;;74.25;30.65;;;358.40;2329.60;;;;;;5073844;28;20017;-76
2022/11/07 07:01:01;;;;;;;67.85;30.25;;;333.60;2329.60;;;;;;5130386;27;20387;-77
2022/11/07 07:03:28;;;;;;;66.22;29.50;;;358.90;2329.60;;;;;;5112895;27;20063;-76
2022/11/07 07:05:54;;;;;;;72.72;33.33;;;358.80;2329.60;;;;;;5123920;28;20496;-75
2022/11/07 07:08:19;;;;;;;82.47;29.58;;;358.70;2329.60;;;;;;5109465;28;20026;-77
2022/11/07 07:10:45;;;;;;;80.75;32.05;;;358.50;2329.60;;;;;;5109497;28;20385;-76
2022/11/07 07:13:12;;;;;;;73.47;31.27;;;358.50;2329.60;;;;;;5108602;28;20020;-76
2022/11/07 07:15:38;;;;;;;66.43;30.25;;;358.50;2329.60;;;;;;5108847;28;20043;-76
2022/11/07 07:21:20;;;;;;;67.13;28.27;;;333.60;2329.60;;;;;;5193498;22;20380;-75
2022/11/07 07:23:46;;;;;;;66.05;27.25;;;358.50;2329.60;;;;;;5025178;28;20084;-77
2022/11/07 07:26:14;;;;;;;60.28;27.85;;;358.40;2329.60;;;;;;5028820;28;20045;-76
2022/11/07 07:28:41;;;;;;;67.20;30.88;;;358.40;2329.60;;;;;;5011427;28;20026;-76
2022/11/07 07:31:13;;;;;;;68.93;29.15;;;358.40;2329.60;;;;;;5018240;28;20030;-76
2022/11/07 07:33:39;;;;;;;66.88;30.48;;;358.40;2329.60;;;;;;5016456;28;20026;-77
2022/11/07 07:36:05;;;;;;;69.50;29.95;;;358.40;2329.60;;;;;;5011169;28;20076;-78
2022/11/07 07:38:31;;;;;;;72.13;29.60;;;358.40;2329.60;;;;;;5010926;28;20033;-77
2022/11/07 07:40:58;;;;;;;65.97;28.77;;;358.40;2329.60;;;;;;5010804;28;20030;-78
2022/11/07 07:43:25;;;;;;;62.10;29.70;;;358.40;2329.60;;;;;;5011124;28;20168;-78
2022/11/07 07:45:50;;;;;;;70.22;30.63;;;358.40;2329.60;;;;;;5011162;28;20026;-78
2022/11/07 07:48:16;;;;;;;63.25;30.42;;;358.50;2329.60;;;;;;5028366;28;20116;-79
2022/11/07 07:50:42;;;;;;;67.75;30.08;;;358.50;2329.60;;;;;;5010891;28;20539;-78
2022/11/07 07:53:08;;;;;;;69.72;30.30;;;358.40;2329.60;;;;;;5043537;28;20109;-79
2022/11/07 07:55:34;;;;;;;72.82;31.02;;;358.40;2329.60;;;;;;5010975;28;20033;-81
2022/11/07 07:58:00;;;;;;;73.13;32.20;;;358.50;2329.60;;;;;;5011059;28;20020;-80
2022/11/07 08:00:25;;;;;;;65.57;29.15;;;358.40;2329.60;;;;;;5005902;28;20030;-78
2022/11/07 08:02:59;;;;;;;56.55;26.35;;;358.50;2329.60;;;;;;4997829;28;20064;-79
2022/11/07 08:05:25;;;;;;;70.60;28.88;;;358.40;2329.60;;;;;;4997292;28;20137;-77
2022/11/07 08:07:51;;;;;;;61.58;26.67;;;358.40;2329.60;;;;;;5015629;28;20100;-88
2022/11/07 08:10:18;;;;;;;62.55;28.63;;;358.40;2329.60;;;;;;5013998;28;20041;-79
2022/11/07 08:12:45;;;;;;;53.60;24.83;;;358.50;2329.60;;;;;;4998040;28;20422;-80
2022/11/07 08:15:12;;;;;;;60.45;26.63;;;358.40;2329.60;;;;;;4997277;28;20113;-79
2022/11/07 08:17:38;;;;;;;55.53;27.33;;;358.40;2329.60;;;;;;4997662;28;20041;-78
2022/11/07 08:20:04;;;;;;;53.15;25.25;;;358.40;2329.60;;;;;;4997192;28;20357;-79
2022/11/07 08:22:30;;;;;;;49.75;25.58;;;358.50;2329.60;;;;;;5029579;28;20133;-80
2022/11/07 08:24:55;;;;;;;45.58;24.55;;;358.50;2329.60;;;;;;5009682;28;20154;-79
2022/11/07 08:27:21;;;;;;;48.83;24.45;;;358.50;2329.60;;;;;;5014311;28;20391;-78
2022/11/07 08:29:47;;;;;;;55.85;26.25;;;358.50;2329.60;;;;;;4997419;28;20089;-76
2022/11/07 08:32:12;;;;;;;51.83;24.77;;;358.50;2329.60;;;;;;5035587;28;20114;-76
2022/11/07 08:34:38;;;;;;;62.35;26.25;;;358.50;2329.60;;;;;;4990547;28;20092;-79
2022/11/07 08:37:04;;;;;;;59.35;25.73;;;358.50;2329.60;;;;;;5023658;28;20036;-76
2022/11/07 08:39:29;;;;;;;55.35;26.23;;;358.50;2329.60;;;;;;5013399;28;20023;-76
2022/11/07 08:41:55;;;;;;;59.55;27.20;;;358.60;2329.60;;;;;;5025576;28;20420;-79
2022/11/07 08:44:21;;;;;;;48.50;23.83;;;358.50;2329.60;;;;;;4996921;28;20034;-78
2022/11/07 08:46:46;;;;;;;51.92;26.15;;;358.60;2329.60;;;;;;5020945;28;20048;-78
2022/11/07 08:49:13;;;;;;;46.75;24.05;;;358.60;2329.60;;;;;;5027991;28;20046;-81
2022/11/07 08:51:39;;;;;;;47.15;26.38;;;358.60;2329.60;;;;;;4998896;28;20087;-80
2022/11/07 08:54:04;;;;;;;50.60;25.92;;;358.60;2329.60;;;;;;4997784;28;20117;-80
2022/11/07 08:56:32;;;;;;;51.30;25.48;;;358.60;2329.60;;;;;;5021842;28;20041;-80
2022/11/07 08:58:58;;;;;;;55.33;29.83;;;358.60;2329.60;;;;;;5017718;28;20025;-83
2022/11/07 09:01:24;;;;;;;58.80;32.22;;;358.60;2329.60;;;;;;5004794;28;20029;-80
2022/11/07 09:03:50;;;;;;;47.28;26.23;;;358.60;2329.60;;;;;;5012578;28;20029;-81
2022/11/07 09:06:16;;;;;;;44.75;24.90;;;358.60;2329.60;;;;;;5004398;28;20096;-87
2022/11/07 09:08:42;;;;;;;51.67;24.83;;;358.60;2329.60;;;;;;4997493;28;20399;-80
2022/11/07 09:11:08;;;;;;;52.20;27.70;;;358.60;2329.60;;;;;;4999156;28;20022;-80
2022/11/07 09:13:34;;;;;;;49.25;26.25;;;358.60;2329.60;;;;;;5000602;28;20030;-79
2022/11/07 09:16:02;;;;;;;42.45;23.73;;;358.70;2329.60;;;;;;4995346;28;20103;-79
2022/11/07 09:18:28;;;;;;;47.53;25.13;;;358.70;2329.60;;;;;;4996214;28;20080;-81
2022/11/07 09:20:54;;;;;;;41.08;22.13;;;358.70;2329.60;;;;;;4993748;28;20117;-78
2022/11/07 09:23:20;;;;;;;46.50;25.23;;;358.70;2329.60;;;;;;4995416;28;20158;-82
2022/11/07 09:25:46;;;;;;;43.05;24.25;;;358.70;2329.60;;;;;;4995751;28;20072;-80
2022/11/07 09:28:12;;;;;;;44.90;24.98;;;358.70;2329.60;;;;;;5011903;28;20026;-82
2022/11/07 09:30:38;;;;;;;41.78;23.15;;;358.70;2329.60;;;;;;4996147;28;20057;-79
2022/11/07 09:33:04;;;;;;;44.63;24.15;;;358.70;2329.60;;;;;;4995970;28;20045;-85
2022/11/07 09:35:30;;;;;;;50.35;25.65;;;358.70;2329.60;;;;;;4995836;28;20046;-88
2022/11/07 09:37:55;;;;;;;49.72;23.17;;;358.60;2329.60;;;;;;4996985;28;20535;-80
2022/11/07 09:40:37;;;;;;;46.80;24.55;;;358.60;2329.60;;;;;;5012360;28;20018;-83
2022/11/07 09:43:56;;;;;;;51.80;25.60;;;358.60;2329.60;;;;;;4995462;28;20048;-83
2022/11/07 09:46:36;;;;;;;50.25;24.42;;;358.60;2329.60;;;;;;4940157;28;20019;-81
2022/11/07 09:49:11;;;;;;;53.60;26.52;;;358.60;2329.60;;;;;;4937715;29;20521;-82
2022/11/07 09:51:46;;;;;;;48.88;26.25;;;358.60;2329.60;;;;;;4953644;28;20202;-82
2022/11/07 09:54:23;;;;;;;48.08;25.20;;;358.60;2329.60;;;;;;4952214;28;20027;-83
2022/11/07 09:56:50;;;;;;;53.80;26.63;;;358.60;2329.60;;;;;;4931873;29;20039;-76
2022/11/07 09:59:30;;;;;;;58.08;29.25;;;358.60;2329.60;;;;;;4945586;29;20429;-77
2022/11/07 10:01:56;;;;;;;57.40;27.85;;;358.70;2329.60;;;;;;4933824;29;20079;-80
2022/11/07 10:04:22;;;;;;;56.60;29.60;;;358.70;2329.60;;;;;;4936769;29;20034;-79
2022/11/07 10:07:02;;;;;;;52.55;28.50;;;358.70;2329.60;;;;;;4936189;29;20090;-84
2022/11/07 10:09:44;;;;;;;213.57;105.38;;;358.70;2329.60;;;;;;4950113;29;20066;-85
2022/11/07 10:12:46;;;;;;;78.18;40.80;;;358.70;2022.40;;;;;;4950326;29;20507;-78
2022/11/07 10:15:29;;;;;;;57.38;30.02;;;358.70;2329.60;;;;;;4952503;29;20027;-78
2022/11/07 10:18:13;;;;;;;54.58;28.27;;;358.70;2329.60;;;;;;4950254;29;20073;-79
2022/11/07 10:20:44;;;;;;;46.17;27.83;;;358.70;2329.60;;;;;;4978218;28;20168;-80
2022/11/07 10:23:37;;;;;;;48.55;28.17;;;358.70;2329.60;;;;;;5024498;28;20077;-78
2022/11/07 10:26:11;;;;;;;48.47;26.73;;;358.80;2329.60;;;;;;5009553;28;20506;-79
2022/11/07 10:28:46;;;;;;;46.78;26.65;;;358.80;2329.60;;;;;;5009827;28;20045;-79
2022/11/07 10:31:13;;;;;;;50.40;26.92;;;358.70;2329.60;;;;;;4992624;28;20026;-82
2022/11/07 10:33:52;;;;;;;43.67;26.65;;;358.70;2329.60;;;;;;4994063;28;20061;-80
2022/11/07 10:36:22;;;;;;;45.05;28.00;;;358.70;2329.60;;;;;;4993345;28;20030;-78
2022/11/07 10:38:48;;;;;;;48.15;27.45;;;358.80;2329.60;;;;;;5009065;28;20022;-78
2022/11/07 10:41:16;;;;;;;45.47;27.30;;;358.80;2329.60;;;;;;4993493;28;20018;-78
2022/11/07 10:43:45;;;;;;;46.63;27.67;;;358.90;2329.60;;;;;;4993569;28;20038;-78
2022/11/07 10:46:36;;;;;;;46.50;28.33;;;358.80;2329.60;;;;;;4993466;28;20030;-78
2022/11/07 10:49:16;;;;;;;44.13;27.52;;;358.90;2329.60;;;;;;4986487;28;20040;-78
2022/11/07 10:51:42;;;;;;;48.22;27.30;;;358.80;2329.60;;;;;;5011082;28;20072;-76
2022/11/07 10:54:19;;;;;;;51.75;29.58;;;358.90;2329.60;;;;;;5011034;28;20029;-77
2022/11/07 10:56:58;;;;;;;41.35;27.30;;;358.90;2329.60;;;;;;4993719;28;20079;-78
2022/11/07 11:12:54;;;;;;;49.10;30.25;;;358.80;2329.60;;;;;;5103774;27;20385;-83
2022/11/07 11:15:28;;;;;;;53.03;30.85;;;384.10;2329.60;;;;;;5105520;28;20545;-83
2022/11/07 11:18:01;;;;;;;53.75;30.25;;;384.00;2329.60;;;;;;5106197;28;20504;-79
2022/11/07 11:20:32;;;;;;;58.20;32.80;;;359.20;2329.60;;;;;;5106219;28;20556;-79
2022/11/07 11:22:59;;;;;;;52.05;30.67;;;359.10;2329.60;;;;;;5106390;28;20036;-79
2022/11/07 11:25:25;;;;;;;60.20;34.47;;;359.00;2329.60;;;;;;5108041;28;20484;-79
2022/11/07 11:28:00;;;;;;;59.92;34.45;;;359.00;2329.60;;;;;;5106016;28;20031;-79
2022/11/07 11:30:28;;;;;;;60.40;33.87;;;359.00;2329.60;;;;;;5105510;28;20032;-79
2022/11/07 11:33:05;;;;;;;64.63;34.40;;;359.00;2329.60;;;;;;5099193;28;20303;-78
2022/11/07 11:35:34;;;;;;;;;;;359.00;2329.60;;;;;;5105954;28;20060;-78
2022/11/07 11:38:07;;;;;;;61.58;34.22;;;359.00;2329.60;;;;;;5105301;28;19904;-79
2022/11/07 11:40:39;;;;;;;54.40;32.58;;;359.00;2329.60;;;;;;5108169;28;20048;-79
2022/11/07 11:43:36;;;;;;;57.17;34.00;;;359.00;2329.60;;;;;;5108632;28;20024;-83
2022/11/07 11:46:18;;;;;;;54.28;30.85;;;359.00;2329.60;;;;;;5107929;28;20052;-80
2022/11/07 11:48:50;;;;;;;57.60;32.42;;;359.00;2329.60;;;;;;5108354;28;20835;-79
2022/11/07 11:51:50;;;;;;;53.05;32.28;;;359.00;2329.60;;;;;;5108319;28;20024;-79
2022/11/07 11:54:16;;;;;;;52.35;32.53;;;359.00;2329.60;;;;;;5108274;28;20024;-79
2022/11/07 11:56:52;;;;;;;53.80;31.67;;;359.00;2329.60;;;;;;5108079;28;20028;-80
2022/11/07 11:59:49;;;;;;;48.97;29.90;;;359.00;2329.60;;;;;;5108286;28;20035;-80
2022/11/07 12:02:40;;;;;;;47.10;28.85;;;359.00;2329.60;;;;;;5108330;28;20040;-80
2022/11/07 12:05:22;;;;;;;49.17;28.90;;;359.00;2329.60;;;;;;5108072;28;20035;-79
2022/11/07 12:08:13;;;;;;;49.63;29.33;;;359.00;2329.60;;;;;;5107777;28;20020;-79
2022/11/07 12:11:02;;;;;;;48.42;31.23;;;359.00;2329.60;;;;;;5108405;28;20036;-83
2022/11/07 12:13:36;;;;;;;42.60;27.80;;;359.00;2329.60;;;;;;5096380;28;20576;-80
2022/11/07 12:16:11;;;;;;;49.00;29.40;;;359.00;2329.60;;;;;;5094063;28;20115;-79
2022/11/07 12:18:43;;;;;;;40.97;26.98;;;359.00;2329.60;;;;;;5094000;28;20016;-78
2022/11/07 12:21:24;;;;;;;42.97;27.08;;;359.00;2329.60;;;;;;5093728;28;20693;-78
2022/11/07 12:24:23;;;;;;;50.58;29.58;;;359.00;2329.60;;;;;;5093655;28;20115;-80
2022/11/07 12:27:34;;;;;;;49.05;28.73;;;359.00;2329.60;;;;;;5093776;28;20067;-79
2022/11/07 12:30:28;;;;;;;50.33;29.17;;;359.00;2329.60;;;;;;4996450;28;20033;-80
2022/11/07 12:33:19;;;;;;;44.70;28.10;;;358.90;2329.60;;;;;;4996620;28;20026;-80
2022/11/07 12:35:59;;;;;;;48.75;29.55;;;358.90;2329.60;;;;;;4996442;28;20087;-80
2022/11/07 12:38:54;;;;;;;53.03;30.27;;;358.90;2329.60;;;;;;4996359;28;20018;-75
2022/11/07 12:41:42;;;;;;;53.50;31.55;;;358.80;2329.60;;;;;;5012485;28;20086;-78
2022/11/07 12:44:36;;;;;;;48.92;27.77;;;358.90;2124.80;;;;;;4996316;28;20031;-79
2022/11/07 12:47:27;;;;;;;46.97;28.75;;;358.90;1996.80;;;;;;5010473;28;20054;-77
2022/11/07 12:50:15;;;;;;;49.72;29.67;;;358.80;2329.60;;;;;;4934629;29;20114;-77
2022/11/07 12:53:02;;;;;;;54.10;29.35;;;358.80;2329.60;;;;;;4936285;29;20032;-76